createdAt,value
2018-09-10T00:00:16.331Z,12.24
2018-09-10T00:02:48.445Z,12.41
2018-09-10T00:05:20.719Z,12.42
2018-09-10T00:07:52.875Z,12.56
2018-09-10T00:10:24.960Z,12.53
2018-09-10T00:12:57.047Z,12.46
2018-09-10T00:15:29.116Z,12.37
2018-09-10T00:18:01.201Z,12.31
2018-09-10T00:20:33.281Z,12.32
2018-09-10T00:23:05.407Z,12.34
2018-09-10T00:25:37.458Z,12.23
2018-09-10T00:28:09.539Z,12.13
2018-09-10T00:30:41.634Z,12.04
2018-09-10T00:33:13.716Z,12.11
2018-09-10T00:35:45.795Z,12.15
2018-09-10T00:38:17.915Z,12.06
2018-09-10T00:40:50.112Z,12.00
2018-09-10T00:43:22.572Z,11.88
2018-09-10T00:45:54.671Z,11.83
2018-09-10T00:48:26.734Z,11.86
2018-09-10T00:50:58.846Z,11.83
2018-09-10T00:53:30.926Z,11.82
2018-09-10T00:56:03.074Z,11.90
2018-09-10T00:58:35.148Z,11.84
2018-09-10T01:01:07.211Z,11.73
2018-09-10T01:03:39.294Z,11.75
2018-09-10T01:06:11.407Z,11.83
2018-09-10T01:08:43.503Z,11.83
2018-09-10T01:11:15.595Z,11.78
2018-09-10T01:13:47.822Z,11.76
2018-09-10T01:16:19.907Z,11.74
2018-09-10T01:18:52.075Z,11.77
2018-09-10T01:21:24.199Z,11.71
2018-09-10T01:23:56.305Z,11.62
2018-09-10T01:26:28.472Z,11.72
2018-09-10T01:29:00.591Z,11.67
2018-09-10T01:31:32.731Z,11.62
2018-09-10T01:34:10.714Z,11.42
2018-09-10T01:36:42.877Z,11.34
2018-09-10T01:39:15.012Z,11.36
2018-09-10T01:41:47.115Z,11.39
2018-09-10T01:44:19.238Z,11.35
2018-09-10T01:46:51.323Z,11.23
2018-09-10T01:49:23.517Z,11.14
2018-09-10T01:51:55.652Z,11.28
2018-09-10T01:54:27.765Z,11.33
2018-09-10T01:56:59.912Z,11.32
2018-09-10T01:59:32.098Z,11.25
2018-09-10T02:02:04.360Z,11.24
2018-09-10T02:04:36.496Z,11.40
2018-09-10T02:07:08.624Z,11.34
2018-09-10T02:09:40.724Z,11.22
2018-09-10T02:12:18.467Z,11.28
2018-09-10T02:14:50.609Z,11.33
2018-09-10T02:17:23.320Z,11.30
2018-09-10T02:19:55.466Z,11.29
2018-09-10T02:22:27.615Z,11.29
2018-09-10T02:24:59.758Z,11.17
2018-09-10T02:27:32.002Z,11.16
2018-09-10T02:30:04.291Z,11.16
2018-09-10T02:32:36.443Z,11.06
2018-09-10T02:35:08.574Z,10.99
2018-09-10T02:37:40.652Z,10.93
2018-09-10T02:40:12.703Z,10.87
2018-09-10T02:42:44.843Z,10.97
2018-09-10T02:45:16.966Z,11.02
2018-09-10T02:47:49.311Z,10.92
2018-09-10T02:50:22.515Z,10.96
2018-09-10T02:52:54.639Z,10.89
2018-09-10T02:55:26.810Z,10.80
2018-09-10T02:57:58.883Z,10.67
2018-09-10T03:00:30.970Z,10.58
2018-09-10T03:03:03.165Z,10.65
2018-09-10T03:05:35.278Z,10.82
2018-09-10T03:08:07.368Z,10.74
2018-09-10T03:10:39.497Z,10.73
2018-09-10T03:13:11.583Z,10.67
2018-09-10T03:15:43.667Z,10.59
2018-09-10T03:18:15.700Z,10.50
2018-09-10T03:20:47.811Z,10.53
2018-09-10T03:23:19.930Z,10.45
2018-09-10T03:25:51.995Z,10.44
2018-09-10T03:28:24.075Z,10.44
2018-09-10T03:30:56.183Z,10.38
2018-09-10T03:33:28.333Z,10.48
2018-09-10T03:36:00.451Z,10.53
2018-09-10T03:38:32.585Z,10.50
2018-09-10T03:41:04.754Z,10.46
2018-09-10T03:43:36.891Z,10.46
2018-09-10T03:46:09.063Z,10.45
2018-09-10T03:48:41.230Z,10.42
2018-09-10T03:51:13.333Z,10.39
2018-09-10T03:53:45.447Z,10.59
2018-09-10T03:56:17.633Z,10.51
2018-09-10T03:58:49.734Z,10.45
2018-09-10T04:01:21.881Z,10.42
2018-09-10T04:03:53.990Z,10.59
2018-09-10T04:06:26.094Z,10.58
2018-09-10T04:08:58.178Z,10.60
2018-09-10T04:11:30.357Z,10.60
2018-09-10T04:14:02.512Z,10.60
2018-09-10T04:16:34.685Z,10.49
2018-09-10T04:19:06.862Z,10.40
2018-09-10T04:21:38.960Z,10.33
2018-09-10T04:24:11.022Z,10.27
2018-09-10T04:26:43.192Z,10.16
2018-09-10T04:29:15.303Z,10.12
2018-09-10T04:31:47.546Z,10.12
2018-09-10T04:34:19.651Z,10.11
2018-09-10T04:36:51.802Z,10.17
2018-09-10T04:39:23.933Z,10.17
2018-09-10T04:41:56.032Z,10.20
2018-09-10T04:44:28.159Z,10.20
2018-09-10T04:47:00.372Z,10.13
2018-09-10T04:49:32.596Z,10.09
2018-09-10T04:52:04.603Z,10.18
2018-09-10T04:54:36.771Z,10.20
2018-09-10T04:57:08.893Z,10.29
2018-09-10T04:59:41.039Z,10.37
2018-09-10T05:02:13.999Z,10.33
2018-09-10T05:04:46.116Z,10.25
2018-09-10T05:07:18.247Z,10.25
2018-09-10T05:09:50.458Z,10.43
2018-09-10T05:12:22.589Z,10.40
2018-09-10T05:14:54.687Z,10.43
2018-09-10T05:17:26.788Z,10.52
2018-09-10T05:19:59.748Z,10.52
2018-09-10T05:22:31.851Z,10.63
2018-09-10T05:25:03.965Z,10.70
2018-09-10T05:27:36.055Z,10.72
2018-09-10T05:30:08.221Z,10.27
2018-09-10T05:32:40.512Z,10.89
2018-09-10T05:35:12.652Z,11.01
2018-09-10T05:37:44.765Z,11.04
2018-09-10T05:40:16.868Z,11.07
2018-09-10T05:42:48.986Z,11.10
2018-09-10T05:45:21.366Z,11.12
2018-09-10T05:47:53.476Z,11.34
2018-09-10T05:50:25.631Z,11.52
2018-09-10T05:52:57.769Z,11.62
2018-09-10T05:55:29.947Z,11.76
2018-09-10T05:58:02.090Z,11.89
2018-09-10T06:00:34.211Z,12.03
2018-09-10T06:03:06.331Z,12.14
2018-09-10T06:05:38.467Z,12.29
2018-09-10T06:08:10.649Z,12.33
2018-09-10T06:10:42.831Z,12.43
2018-09-10T06:13:14.897Z,12.47
2018-09-10T06:15:47.010Z,12.63
2018-09-10T06:18:19.123Z,12.68
2018-09-10T06:20:51.221Z,12.72
2018-09-10T06:23:23.325Z,12.84
2018-09-10T06:25:55.454Z,12.86
2018-09-10T06:28:27.659Z,12.95
2018-09-10T06:30:59.834Z,13.10
2018-09-10T06:33:31.989Z,13.24
2018-09-10T06:36:04.111Z,13.38
2018-09-10T06:38:36.254Z,13.56
2018-09-10T06:41:08.370Z,13.67
2018-09-10T06:43:40.497Z,14.35
2018-09-10T06:46:12.626Z,16.20
2018-09-10T06:48:44.779Z,18.53
2018-09-10T06:51:16.918Z,19.17
2018-09-10T06:53:49.128Z,18.98
2018-09-10T06:56:21.207Z,20.05
2018-09-10T06:58:53.305Z,21.42
2018-09-10T07:01:25.460Z,21.86
2018-09-10T07:03:57.560Z,22.94
2018-09-10T07:06:30.313Z,22.79
2018-09-10T07:09:02.572Z,24.40
2018-09-10T07:11:35.009Z,23.48
2018-09-10T07:14:07.138Z,23.39
2018-09-10T07:16:39.288Z,24.80
2018-09-10T07:19:11.375Z,24.50
2018-09-10T07:21:43.517Z,24.07
2018-09-10T07:24:15.640Z,25.00
2018-09-10T07:26:47.823Z,25.34
2018-09-10T07:29:19.887Z,24.45
2018-09-10T07:31:52.093Z,23.77
2018-09-10T07:34:24.255Z,23.11
2018-09-10T07:37:03.173Z,23.35
2018-09-10T07:39:35.326Z,24.35
2018-09-10T07:42:07.489Z,24.89
2018-09-10T07:44:39.616Z,24.84
2018-09-10T07:47:11.865Z,25.67
2018-09-10T07:49:44.096Z,26.54
2018-09-10T07:52:16.217Z,25.43
2018-09-10T07:54:49.397Z,26.42
2018-09-10T07:57:21.606Z,25.74
2018-09-10T07:59:53.793Z,25.38
2018-09-10T08:02:25.943Z,25.77
2018-09-10T08:04:58.115Z,24.72
2018-09-10T08:07:30.251Z,25.52
2018-09-10T08:10:02.486Z,25.16
2018-09-10T08:12:34.893Z,25.53
2018-09-10T08:15:07.081Z,25.97
2018-09-10T08:17:39.708Z,26.16
2018-09-10T08:20:12.241Z,26.35
2018-09-10T08:22:44.431Z,25.09
2018-09-10T08:25:16.638Z,25.02
2018-09-10T08:27:48.748Z,23.95
2018-09-10T08:30:20.882Z,24.75
2018-09-10T08:32:52.941Z,24.81
2018-09-10T08:35:25.153Z,25.30
2018-09-10T08:37:57.863Z,25.63
2018-09-10T08:40:30.033Z,25.85
2018-09-10T08:43:02.169Z,25.58
2018-09-10T08:45:34.339Z,24.88
2018-09-10T08:48:06.553Z,24.60
2018-09-10T08:50:38.634Z,24.15
2018-09-10T08:53:10.780Z,24.52
2018-09-10T08:55:43.474Z,24.74
2018-09-10T08:58:15.380Z,25.35
2018-09-10T09:00:47.577Z,24.69
2018-09-10T09:03:19.777Z,24.80
2018-09-10T09:05:52.057Z,25.27
2018-09-10T09:08:24.063Z,25.56
2018-09-10T09:10:56.185Z,26.29
2018-09-10T09:13:28.275Z,24.89
2018-09-10T09:16:00.381Z,25.00
2018-09-10T09:18:32.918Z,25.57
2018-09-10T09:21:05.140Z,25.70
2018-09-10T09:23:37.364Z,26.00
2018-09-10T09:26:09.485Z,25.92
2018-09-10T09:28:41.559Z,26.25
2018-09-10T09:31:13.668Z,26.28
2018-09-10T09:33:45.779Z,26.86
2018-09-10T09:36:23.586Z,26.65
2018-09-10T09:39:01.395Z,27.00
2018-09-10T09:41:39.306Z,27.32
2018-09-10T09:44:16.979Z,27.39
2018-09-10T09:46:49.055Z,27.89
2018-09-10T09:49:21.793Z,27.92
2018-09-10T09:51:54.233Z,27.13
2018-09-10T09:54:27.739Z,27.49
2018-09-10T09:57:00.066Z,27.65
2018-09-10T09:59:32.217Z,28.48
2018-09-10T10:02:10.134Z,28.00
2018-09-10T10:04:42.291Z,28.28
2018-09-10T10:07:14.349Z,27.81
2018-09-10T10:09:46.521Z,27.74
2018-09-10T10:12:18.779Z,28.52
2018-09-10T10:14:50.817Z,28.88
2018-09-10T10:17:22.990Z,28.90
2018-09-10T10:19:55.090Z,28.80
2018-09-10T10:22:27.216Z,29.46
2018-09-10T10:24:59.777Z,29.37
2018-09-10T10:27:34.942Z,28.30
2018-09-10T10:30:07.122Z,29.03
2018-09-10T10:32:39.310Z,29.34
2018-09-10T10:35:11.424Z,28.91
2018-09-10T10:37:43.525Z,29.03
2018-09-10T10:40:15.602Z,29.15
2018-09-10T10:42:47.942Z,29.37
2018-09-10T10:45:20.019Z,29.35
2018-09-10T10:47:52.083Z,29.96
2018-09-10T10:50:24.144Z,29.62
2018-09-10T10:52:56.240Z,29.60
2018-09-10T10:55:28.313Z,29.87
2018-09-10T10:58:00.587Z,29.46
2018-09-10T11:00:32.661Z,29.49
2018-09-10T11:03:05.111Z,29.77
2018-09-10T11:05:37.184Z,30.66
2018-09-10T11:08:09.363Z,31.22
2018-09-10T11:10:41.564Z,30.61
2018-09-10T11:13:13.762Z,30.82
2018-09-10T11:15:45.862Z,31.65
2018-09-10T11:18:17.915Z,31.88
2018-09-10T11:20:50.037Z,30.97
2018-09-10T11:23:22.149Z,30.76
2018-09-10T11:25:54.354Z,30.89
2018-09-10T11:28:26.507Z,30.86
2018-09-10T11:30:58.603Z,30.92
2018-09-10T11:33:30.831Z,31.43
2018-09-10T11:36:03.187Z,31.30
2018-09-10T11:38:35.378Z,31.24
2018-09-10T11:41:07.439Z,30.61
2018-09-10T11:43:39.798Z,31.02
2018-09-10T11:46:11.928Z,30.21
2018-09-10T11:48:44.059Z,30.74
2018-09-10T11:51:16.281Z,30.96
2018-09-10T11:53:48.468Z,30.93
2018-09-10T11:56:20.647Z,31.12
2018-09-10T11:58:52.879Z,30.63
2018-09-10T12:01:25.014Z,30.64
2018-09-10T12:03:57.158Z,29.54
2018-09-10T12:06:29.290Z,30.79
2018-09-10T12:09:01.395Z,31.04
2018-09-10T12:11:33.549Z,31.02
2018-09-10T12:14:05.736Z,31.08
2018-09-10T12:16:37.839Z,30.50
2018-09-10T12:19:09.971Z,30.98
2018-09-10T12:24:20.925Z,30.59
2018-09-10T12:26:52.976Z,30.39
2018-09-10T12:29:25.142Z,30.88
2018-09-10T12:31:57.349Z,31.50
2018-09-10T12:34:29.495Z,31.58
2018-09-10T12:37:01.675Z,31.31
2018-09-10T12:39:33.823Z,31.56
2018-09-10T12:42:05.914Z,31.60
2018-09-10T12:44:38.021Z,31.79
2018-09-10T12:47:10.160Z,31.75
2018-09-10T12:49:42.356Z,31.85
2018-09-10T12:52:14.482Z,31.88
2018-09-10T12:54:46.634Z,31.70
2018-09-10T12:57:18.731Z,31.46
2018-09-10T12:59:50.850Z,32.11
2018-09-10T13:02:23.072Z,32.02
2018-09-10T13:04:55.227Z,32.61
2018-09-10T13:07:27.413Z,32.59
2018-09-10T13:09:59.540Z,31.42
2018-09-10T13:12:31.688Z,31.88
2018-09-10T13:15:03.977Z,31.94
2018-09-10T13:17:36.144Z,32.58
2018-09-10T13:20:08.327Z,32.25
2018-09-10T13:22:40.604Z,32.25
2018-09-10T13:25:12.758Z,32.81
2018-09-10T13:27:45.028Z,32.55
2018-09-10T13:30:17.192Z,31.94
2018-09-10T13:32:49.327Z,32.46
2018-09-10T13:35:21.567Z,33.15
2018-09-10T13:37:53.607Z,33.93
2018-09-10T13:40:25.728Z,32.93
2018-09-10T13:42:57.871Z,31.84
2018-09-10T13:45:30.027Z,33.02
2018-09-10T13:48:02.114Z,33.43
2018-09-10T13:50:34.323Z,33.25
2018-09-10T13:53:06.668Z,33.11
2018-09-10T13:55:38.738Z,31.06
2018-09-10T13:58:10.927Z,31.00
2018-09-10T14:00:43.146Z,30.39
2018-09-10T14:03:15.218Z,29.97
2018-09-10T14:05:47.413Z,29.73
2018-09-10T14:08:19.600Z,29.44
2018-09-10T14:10:51.798Z,29.40
2018-09-10T14:13:23.948Z,29.41
2018-09-10T14:15:56.135Z,29.05
2018-09-10T14:18:28.301Z,29.51
2018-09-10T14:21:00.457Z,31.36
2018-09-10T14:23:32.622Z,32.63
2018-09-10T14:26:05.040Z,31.43
2018-09-10T14:28:37.257Z,30.78
2018-09-10T14:31:09.459Z,30.58
2018-09-10T14:33:41.592Z,30.80
2018-09-10T14:36:13.782Z,30.07
2018-09-10T14:38:45.967Z,29.70
2018-09-10T14:41:18.117Z,29.23
2018-09-10T14:43:50.520Z,29.67
2018-09-10T14:46:22.657Z,30.69
2018-09-10T14:48:54.793Z,31.08
2018-09-10T14:51:26.993Z,30.80
2018-09-10T14:53:59.128Z,30.07
2018-09-10T14:56:31.252Z,31.44
2018-09-10T14:59:03.395Z,33.53
2018-09-10T15:01:35.512Z,34.04
2018-09-10T15:04:08.181Z,32.45
2018-09-10T15:06:40.336Z,30.69
2018-09-10T15:09:12.471Z,29.42
2018-09-10T15:11:44.688Z,29.12
2018-09-10T15:14:16.788Z,28.83
2018-09-10T15:16:48.929Z,28.75
2018-09-10T15:19:21.049Z,28.79
2018-09-10T15:21:53.222Z,28.60
2018-09-10T15:24:25.348Z,28.69
2018-09-10T15:26:57.460Z,28.83
2018-09-10T15:29:29.545Z,28.40
2018-09-10T15:32:01.703Z,28.83
2018-09-10T15:34:33.895Z,28.42
2018-09-10T15:37:06.026Z,28.39
2018-09-10T15:39:38.170Z,28.50
2018-09-10T15:42:10.301Z,28.46
2018-09-10T15:44:42.519Z,28.45
2018-09-10T15:47:14.659Z,28.34
2018-09-10T15:49:46.843Z,27.96
2018-09-10T15:52:18.968Z,27.98
2018-09-10T15:54:51.094Z,27.91
2018-09-10T15:57:23.236Z,27.85
2018-09-10T15:59:55.542Z,27.59
2018-09-10T16:02:27.974Z,27.72
2018-09-10T16:05:00.134Z,27.19
2018-09-10T16:07:32.330Z,27.01
2018-09-10T16:10:04.465Z,27.02
2018-09-10T16:12:36.642Z,27.08
2018-09-10T16:15:08.812Z,26.97
2018-09-10T16:17:41.015Z,26.97
2018-09-10T16:20:13.156Z,26.70
2018-09-10T16:22:45.283Z,26.58
2018-09-10T16:25:17.335Z,26.29
2018-09-10T16:27:49.513Z,26.19
2018-09-10T16:30:21.691Z,26.07
2018-09-10T16:32:53.843Z,25.82
2018-09-10T16:35:26.100Z,25.63
2018-09-10T16:37:58.208Z,25.56
2018-09-10T16:40:30.419Z,25.34
2018-09-10T16:43:02.571Z,25.30
2018-09-10T16:45:34.670Z,25.11
2018-09-10T16:48:06.955Z,24.98
2018-09-10T16:50:39.151Z,24.83
2018-09-10T16:53:11.288Z,24.72
2018-09-10T16:55:43.563Z,24.64
2018-09-10T16:58:15.662Z,24.54
2018-09-10T17:00:47.789Z,24.41
2018-09-10T17:03:19.916Z,24.31
2018-09-10T17:05:52.103Z,24.18
2018-09-10T17:08:24.441Z,24.04
2018-09-10T17:10:56.548Z,23.91
2018-09-10T17:13:28.692Z,23.83
2018-09-10T17:16:00.827Z,23.74
2018-09-10T17:18:33.068Z,23.60
2018-09-10T17:21:05.208Z,23.52
2018-09-10T17:23:37.327Z,23.38
2018-09-10T17:26:09.536Z,23.28
2018-09-10T17:28:42.317Z,23.17
2018-09-10T17:31:14.449Z,23.06
2018-09-10T17:33:46.661Z,22.92
2018-09-10T17:36:19.006Z,22.84
2018-09-10T17:38:51.251Z,22.70
2018-09-10T17:41:23.413Z,22.56
2018-09-10T17:43:55.600Z,22.44
2018-09-10T17:46:27.685Z,22.32
2018-09-10T17:48:59.804Z,22.07
2018-09-10T17:51:32.028Z,21.91
2018-09-10T17:54:04.162Z,21.64
2018-09-10T17:56:36.306Z,21.59
2018-09-10T17:59:08.432Z,21.48
2018-09-10T18:01:40.631Z,21.36
2018-09-10T18:04:12.801Z,21.31
2018-09-10T18:06:44.939Z,21.25
2018-09-10T18:09:17.067Z,21.26
2018-09-10T18:11:49.212Z,21.27
2018-09-10T18:14:21.330Z,21.27
2018-09-10T18:16:53.471Z,21.26
2018-09-10T18:19:25.589Z,21.19
2018-09-10T18:21:57.764Z,21.15
2018-09-10T18:24:29.972Z,21.05
2018-09-10T18:27:02.129Z,21.03
2018-09-10T18:29:34.265Z,21.02
2018-09-10T18:32:06.394Z,21.02
2018-09-10T18:34:38.544Z,20.81
2018-09-10T18:37:10.688Z,20.71
2018-09-10T18:39:42.875Z,20.57
2018-09-10T18:42:14.942Z,20.45
2018-09-10T18:44:47.034Z,20.37
2018-09-10T18:47:19.187Z,20.25
2018-09-10T18:49:51.396Z,20.20
2018-09-10T18:52:23.532Z,20.12
2018-09-10T18:54:55.644Z,19.99
2018-09-10T18:57:27.736Z,19.88
2018-09-10T18:59:59.923Z,19.88
2018-09-10T19:02:32.088Z,19.91
2018-09-10T19:05:04.252Z,19.88
2018-09-10T19:07:36.304Z,19.75
2018-09-10T19:10:08.965Z,19.73
2018-09-10T19:12:41.086Z,19.64
2018-09-10T19:15:13.139Z,19.57
2018-09-10T19:17:45.192Z,19.41
2018-09-10T19:20:17.317Z,19.31
2018-09-10T19:22:49.565Z,19.25
2018-09-10T19:25:21.735Z,19.28
2018-09-10T19:27:53.809Z,19.35
2018-09-10T19:30:26.042Z,19.27
2018-09-10T19:32:58.303Z,19.24
2018-09-10T19:35:30.535Z,19.15
2018-09-10T19:38:02.639Z,19.11
2018-09-10T19:40:34.785Z,19.05
2018-09-10T19:43:06.957Z,18.98
2018-09-10T19:45:39.059Z,18.88
2018-09-10T19:48:11.189Z,18.80
2018-09-10T19:50:43.411Z,18.62
2018-09-10T19:53:15.480Z,18.50
2018-09-10T19:55:47.639Z,18.46
2018-09-10T19:58:19.761Z,18.39
2018-09-10T20:00:51.885Z,18.37
2018-09-10T20:03:24.101Z,18.41
2018-09-10T20:05:56.235Z,18.38
2018-09-10T20:08:28.356Z,18.41
2018-09-10T20:11:00.507Z,18.38
2018-09-10T20:13:32.622Z,18.41
2018-09-10T20:16:04.766Z,18.39
2018-09-10T20:18:37.074Z,18.35
2018-09-10T20:21:09.335Z,18.25
2018-09-10T20:23:41.424Z,18.24
2018-09-10T20:26:13.643Z,18.17
2018-09-10T20:28:45.731Z,18.12
2018-09-10T20:31:17.921Z,18.12
2018-09-10T20:33:55.816Z,18.18
2018-09-10T20:36:27.937Z,18.16
2018-09-10T20:39:00.087Z,18.15
2018-09-10T20:41:32.244Z,18.12
2018-09-10T20:44:04.426Z,18.08
2018-09-10T20:46:36.756Z,18.11
2018-09-10T20:49:08.850Z,18.04
2018-09-10T20:51:40.995Z,18.13
2018-09-10T20:54:13.167Z,18.20
2018-09-10T20:56:45.268Z,18.24
2018-09-10T20:59:17.379Z,18.20
2018-09-10T21:01:49.515Z,18.16
2018-09-10T21:04:21.613Z,18.05
2018-09-10T21:06:53.692Z,17.94
2018-09-10T21:09:25.857Z,17.82
2018-09-10T21:11:57.935Z,17.80
2018-09-10T21:14:30.090Z,17.75
2018-09-10T21:17:02.156Z,17.63
2018-09-10T21:19:34.264Z,17.53
2018-09-10T21:22:06.396Z,17.42
2018-09-10T21:24:38.507Z,17.43
2018-09-10T21:27:10.632Z,17.39
2018-09-10T21:29:42.815Z,17.42
2018-09-10T21:32:14.983Z,17.46
2018-09-10T21:34:47.082Z,17.57
2018-09-10T21:37:19.171Z,17.45
2018-09-10T21:39:51.349Z,17.45
2018-09-10T21:42:23.415Z,17.41
2018-09-10T21:44:55.545Z,17.42
2018-09-10T21:47:27.658Z,17.29
2018-09-10T21:49:59.833Z,17.23
2018-09-10T21:52:32.066Z,17.07
2018-09-10T21:55:04.207Z,17.02
2018-09-10T21:57:36.314Z,16.95
2018-09-10T22:00:08.519Z,16.97
2018-09-10T22:02:40.615Z,16.96
2018-09-10T22:05:12.746Z,16.95
2018-09-10T22:07:44.798Z,16.87
2018-09-10T22:10:16.888Z,16.70
2018-09-10T22:12:48.974Z,16.57
2018-09-10T22:15:21.071Z,16.59
2018-09-10T22:17:53.248Z,16.61
2018-09-10T22:20:25.313Z,16.57
2018-09-10T22:22:57.454Z,16.54
2018-09-10T22:25:29.538Z,16.47
2018-09-10T22:28:01.644Z,16.25
2018-09-10T22:30:34.425Z,16.21
2018-09-10T22:33:08.035Z,16.15
2018-09-10T22:35:40.082Z,16.18
2018-09-10T22:38:12.147Z,16.08
2018-09-10T22:40:44.267Z,16.05
2018-09-10T22:43:16.359Z,16.01
2018-09-10T22:45:48.418Z,16.00
2018-09-10T22:48:20.649Z,16.09
2018-09-10T22:50:52.707Z,16.13
2018-09-10T22:53:24.857Z,16.07
2018-09-10T22:55:56.903Z,16.10
2018-09-10T22:58:29.066Z,16.05
2018-09-10T23:01:01.139Z,16.02
2018-09-10T23:03:33.283Z,15.90
2018-09-10T23:06:05.427Z,15.89
2018-09-10T23:08:37.654Z,15.95
2018-09-10T23:11:09.698Z,15.86
2018-09-10T23:13:41.821Z,15.69
2018-09-10T23:16:13.877Z,15.68
2018-09-10T23:18:46.018Z,15.70
2018-09-10T23:21:18.106Z,15.60
2018-09-10T23:23:50.214Z,15.54
2018-09-10T23:26:22.321Z,15.36
2018-09-10T23:28:54.412Z,15.30
2018-09-10T23:31:26.564Z,15.30
2018-09-10T23:33:58.707Z,15.31
2018-09-10T23:36:30.778Z,15.24
2018-09-10T23:39:03.758Z,15.33
2018-09-10T23:41:35.853Z,15.41
2018-09-10T23:44:07.927Z,15.42
2018-09-10T23:46:39.987Z,15.51
2018-09-10T23:49:12.106Z,15.49
2018-09-10T23:51:44.182Z,15.51
2018-09-10T23:54:16.437Z,15.47
2018-09-10T23:56:48.555Z,15.55
2018-09-10T23:59:20.717Z,15.50
